sensor_id;sensor_type;location;lat;lon;timestamp;pressure;altitude;pressure_sealevel;temperature;humidity
46714;BME280;32445;51.376;10.874;2023-04-25T00:02:11;98584.59;;;10.03;45.79
46714;BME280;32445;51.376;10.874;2023-04-25T00:05:12;98581.25;;;9.99;45.40
46714;BME280;32445;51.376;10.874;2023-04-25T00:08:12;98581.31;;;9.98;45.95
46714;BME280;32445;51.376;10.874;2023-04-25T00:11:12;98579.03;;;9.90;45.92
46714;BME280;32445;51.376;10.874;2023-04-25T00:14:13;98579.97;;;9.87;46.15
46714;BME280;32445;51.376;10.874;2023-04-25T00:17:14;98586.06;;;9.86;46.28
46714;BME280;32445;51.376;10.874;2023-04-25T00:20:14;98579.13;;;9.87;46.53
46714;BME280;32445;51.376;10.874;2023-04-25T00:23:16;98591.31;;;9.85;46.29
46714;BME280;32445;51.376;10.874;2023-04-25T00:26:18;98591.25;;;9.86;46.34
46714;BME280;32445;51.376;10.874;2023-04-25T00:29:18;98593.06;;;9.84;46.42
46714;BME280;32445;51.376;10.874;2023-04-25T00:32:19;98581.84;;;9.84;46.39
46714;BME280;32445;51.376;10.874;2023-04-25T00:35:19;98581.06;;;9.82;46.05
46714;BME280;32445;51.376;10.874;2023-04-25T00:38:19;98581.19;;;9.79;46.55
46714;BME280;32445;51.376;10.874;2023-04-25T00:41:20;98581.75;;;9.63;47.43
46714;BME280;32445;51.376;10.874;2023-04-25T00:44:21;98580.28;;;9.56;47.37
46714;BME280;32445;51.376;10.874;2023-04-25T00:47:21;98573.59;;;9.50;47.37
46714;BME280;32445;51.376;10.874;2023-04-25T00:50:23;98577.25;;;9.45;47.67
46714;BME280;32445;51.376;10.874;2023-04-25T00:53:25;98568.69;;;9.43;47.73
46714;BME280;32445;51.376;10.874;2023-04-25T00:56:26;98570.41;;;9.42;47.87
46714;BME280;32445;51.376;10.874;2023-04-25T00:59:27;98558.59;;;9.35;48.07
46714;BME280;32445;51.376;10.874;2023-04-25T01:02:28;98570.81;;;9.31;47.97
46714;BME280;32445;51.376;10.874;2023-04-25T01:05:29;98575.25;;;9.28;47.71
46714;BME280;32445;51.376;10.874;2023-04-25T01:08:29;98563.44;;;9.21;48.22
46714;BME280;32445;51.376;10.874;2023-04-25T01:11:30;98564.25;;;9.21;48.17
46714;BME280;32445;51.376;10.874;2023-04-25T01:14:31;98561.78;;;9.18;47.82
46714;BME280;32445;51.376;10.874;2023-04-25T01:17:31;98555.81;;;9.16;47.97
46714;BME280;32445;51.376;10.874;2023-04-25T01:20:34;98558.25;;;9.21;48.09
46714;BME280;32445;51.376;10.874;2023-04-25T01:23:34;98557.34;;;9.22;48.19
46714;BME280;32445;51.376;10.874;2023-04-25T01:26:35;98561.91;;;9.15;48.05
46714;BME280;32445;51.376;10.874;2023-04-25T01:29:36;98553.34;;;9.13;47.88
46714;BME280;32445;51.376;10.874;2023-04-25T01:32:37;98549.97;;;9.11;48.16
46714;BME280;32445;51.376;10.874;2023-04-25T01:35:40;98549.13;;;9.10;48.05
46714;BME280;32445;51.376;10.874;2023-04-25T01:38:41;98551.88;;;9.06;48.07
46714;BME280;32445;51.376;10.874;2023-04-25T01:41:45;98550.19;;;9.05;48.43
46714;BME280;32445;51.376;10.874;2023-04-25T01:44:45;98556.13;;;9.07;48.10
46714;BME280;32445;51.376;10.874;2023-04-25T01:47:46;98565.66;;;9.06;48.34
46714;BME280;32445;51.376;10.874;2023-04-25T01:50:50;98558.00;;;9.03;48.51
46714;BME280;32445;51.376;10.874;2023-04-25T01:53:50;98564.06;;;9.02;48.18
46714;BME280;32445;51.376;10.874;2023-04-25T01:56:51;98572.72;;;9.01;48.55
46714;BME280;32445;51.376;10.874;2023-04-25T01:59:55;98566.13;;;8.92;48.95
46714;BME280;32445;51.376;10.874;2023-04-25T02:02:58;98571.34;;;8.91;49.05
46714;BME280;32445;51.376;10.874;2023-04-25T02:05:58;98574.88;;;8.90;49.21
46714;BME280;32445;51.376;10.874;2023-04-25T02:08:59;98572.94;;;8.95;49.02
46714;BME280;32445;51.376;10.874;2023-04-25T02:11:59;98574.66;;;8.96;48.50
46714;BME280;32445;51.376;10.874;2023-04-25T02:15:00;98566.81;;;8.97;48.85
46714;BME280;32445;51.376;10.874;2023-04-25T02:18:01;98575.44;;;8.98;48.40
46714;BME280;32445;51.376;10.874;2023-04-25T02:21:02;98571.25;;;8.94;48.56
46714;BME280;32445;51.376;10.874;2023-04-25T02:24:03;98577.19;;;8.97;48.44
46714;BME280;32445;51.376;10.874;2023-04-25T02:27:03;98579.81;;;8.96;48.47
46714;BME280;32445;51.376;10.874;2023-04-25T02:30:05;98575.53;;;8.95;48.82
46714;BME280;32445;51.376;10.874;2023-04-25T02:33:06;98574.81;;;8.91;48.40
46714;BME280;32445;51.376;10.874;2023-04-25T02:36:07;98581.59;;;8.94;48.64
46714;BME280;32445;51.376;10.874;2023-04-25T02:39:07;98584.13;;;8.97;47.88
46714;BME280;32445;51.376;10.874;2023-04-25T02:42:08;98578.78;;;9.02;47.90
46714;BME280;32445;51.376;10.874;2023-04-25T02:45:08;98587.44;;;9.00;47.41
46714;BME280;32445;51.376;10.874;2023-04-25T02:48:09;98579.50;;;9.05;47.47
46714;BME280;32445;51.376;10.874;2023-04-25T02:51:10;98586.25;;;9.09;47.53
46714;BME280;32445;51.376;10.874;2023-04-25T02:54:10;98572.41;;;9.10;47.08
46714;BME280;32445;51.376;10.874;2023-04-25T02:57:10;98580.19;;;9.10;47.35
46714;BME280;32445;51.376;10.874;2023-04-25T03:00:11;98581.25;;;9.05;47.24
46714;BME280;32445;51.376;10.874;2023-04-25T03:03:12;98581.31;;;9.03;47.33
46714;BME280;32445;51.376;10.874;2023-04-25T03:06:12;98573.59;;;9.02;47.61
46714;BME280;32445;51.376;10.874;2023-04-25T03:09:12;98576.25;;;9.00;47.27
46714;BME280;32445;51.376;10.874;2023-04-25T03:12:13;98573.66;;;9.00;47.11
46714;BME280;32445;51.376;10.874;2023-04-25T03:15:13;98580.53;;;8.99;47.07
46714;BME280;32445;51.376;10.874;2023-04-25T03:18:13;98573.69;;;8.98;47.11
46714;BME280;32445;51.376;10.874;2023-04-25T03:21:14;98565.28;;;8.92;47.11
46714;BME280;32445;51.376;10.874;2023-04-25T03:24:14;98564.50;;;8.90;47.14
46714;BME280;32445;51.376;10.874;2023-04-25T03:27:15;98562.94;;;8.86;47.32
46714;BME280;32445;51.376;10.874;2023-04-25T03:30:15;98563.00;;;8.82;47.29
46714;BME280;32445;51.376;10.874;2023-04-25T03:33:16;98570.78;;;8.82;47.10
46714;BME280;32445;51.376;10.874;2023-04-25T03:36:16;98570.00;;;8.80;46.94
46714;BME280;32445;51.376;10.874;2023-04-25T03:39:16;98567.50;;;8.77;47.28
46714;BME280;32445;51.376;10.874;2023-04-25T03:42:17;98566.75;;;8.74;47.01
46714;BME280;32445;51.376;10.874;2023-04-25T03:45:17;98577.16;;;8.72;47.02
46714;BME280;32445;51.376;10.874;2023-04-25T03:48:18;98565.22;;;8.68;47.28
46714;BME280;32445;51.376;10.874;2023-04-25T03:51:21;98567.91;;;8.65;47.01
46714;BME280;32445;51.376;10.874;2023-04-25T03:54:21;98567.22;;;8.60;47.26
46714;BME280;32445;51.376;10.874;2023-04-25T03:57:22;98567.34;;;8.57;47.34
46714;BME280;32445;51.376;10.874;2023-04-25T04:00:22;98565.75;;;8.53;46.83
46714;BME280;32445;51.376;10.874;2023-04-25T04:03:22;98571.00;;;8.49;46.75
46714;BME280;32445;51.376;10.874;2023-04-25T04:06:23;98575.44;;;8.46;47.23
46714;BME280;32445;51.376;10.874;2023-04-25T04:09:23;98573.81;;;8.42;47.06
46714;BME280;32445;51.376;10.874;2023-04-25T04:12:23;98582.50;;;8.39;46.98
46714;BME280;32445;51.376;10.874;2023-04-25T04:15:24;98581.78;;;8.36;47.37
46714;BME280;32445;51.376;10.874;2023-04-25T04:18:24;98587.06;;;8.32;47.32
46714;BME280;32445;51.376;10.874;2023-04-25T04:21:24;98581.06;;;8.30;47.07
46714;BME280;32445;51.376;10.874;2023-04-25T04:24:27;98578.56;;;8.27;47.58
46714;BME280;32445;51.376;10.874;2023-04-25T04:27:28;98576.94;;;8.25;47.78
46714;BME280;32445;51.376;10.874;2023-04-25T04:30:29;98577.91;;;8.21;47.84
46714;BME280;32445;51.376;10.874;2023-04-25T04:33:31;98583.13;;;8.19;47.86
46714;BME280;32445;51.376;10.874;2023-04-25T04:36:31;98582.31;;;8.19;47.87
46714;BME280;32445;51.376;10.874;2023-04-25T04:39:32;98584.06;;;8.17;47.82
46714;BME280;32445;51.376;10.874;2023-04-25T04:42:33;98586.66;;;8.17;48.33
46714;BME280;32445;51.376;10.874;2023-04-25T04:45:33;98596.97;;;8.18;48.45
46714;BME280;32445;51.376;10.874;2023-04-25T04:48:33;98598.69;;;8.18;48.63
46714;BME280;32445;51.376;10.874;2023-04-25T04:51:34;98595.19;;;8.20;49.12
46714;BME280;32445;51.376;10.874;2023-04-25T04:54:34;98604.59;;;8.23;48.89
46714;BME280;32445;51.376;10.874;2023-04-25T04:57:35;98607.06;;;8.26;48.93
46714;BME280;32445;51.376;10.874;2023-04-25T05:00:36;98604.38;;;8.29;49.31
46714;BME280;32445;51.376;10.874;2023-04-25T05:03:36;98612.97;;;8.31;48.90
46714;BME280;32445;51.376;10.874;2023-04-25T05:06:36;98604.28;;;8.32;49.10
46714;BME280;32445;51.376;10.874;2023-04-25T05:09:37;98607.91;;;8.26;49.62
46714;BME280;32445;51.376;10.874;2023-04-25T05:12:37;98606.41;;;8.19;50.18
46714;BME280;32445;51.376;10.874;2023-04-25T05:15:37;98614.22;;;8.18;50.44
46714;BME280;32445;51.376;10.874;2023-04-25T05:18:39;98624.50;;;8.19;50.41
46714;BME280;32445;51.376;10.874;2023-04-25T05:21:39;98626.25;;;8.19;50.45
46714;BME280;32445;51.376;10.874;2023-04-25T05:24:40;98629.63;;;8.21;51.18
46714;BME280;32445;51.376;10.874;2023-04-25T05:27:40;98632.13;;;8.24;50.82
46714;BME280;32445;51.376;10.874;2023-04-25T05:30:40;98630.34;;;8.26;51.11
46714;BME280;32445;51.376;10.874;2023-04-25T05:33:41;98632.81;;;8.29;51.05
46714;BME280;32445;51.376;10.874;2023-04-25T05:36:41;98624.22;;;8.28;52.15
46714;BME280;32445;51.376;10.874;2023-04-25T05:39:42;98634.53;;;8.30;51.78
46714;BME280;32445;51.376;10.874;2023-04-25T05:42:42;98629.34;;;8.30;52.70
46714;BME280;32445;51.376;10.874;2023-04-25T05:45:42;98633.53;;;8.34;52.28
46714;BME280;32445;51.376;10.874;2023-04-25T05:48:43;98635.88;;;8.42;52.17
46714;BME280;32445;51.376;10.874;2023-04-25T05:51:43;98636.69;;;8.45;52.48
46714;BME280;32445;51.376;10.874;2023-04-25T05:54:43;98635.72;;;8.48;52.53
46714;BME280;32445;51.376;10.874;2023-04-25T05:57:45;98645.00;;;8.54;52.59
46714;BME280;32445;51.376;10.874;2023-04-25T06:00:45;98647.44;;;8.60;51.93
46714;BME280;32445;51.376;10.874;2023-04-25T06:03:46;98653.28;;;8.65;52.29
46714;BME280;32445;51.376;10.874;2023-04-25T06:06:46;98651.50;;;8.67;52.42
46714;BME280;32445;51.376;10.874;2023-04-25T06:09:46;98653.06;;;8.73;52.10
46714;BME280;32445;51.376;10.874;2023-04-25T06:12:47;98658.19;;;8.74;52.56
46714;BME280;32445;51.376;10.874;2023-04-25T06:15:47;98653.94;;;8.72;53.36
46714;BME280;32445;51.376;10.874;2023-04-25T06:18:48;98656.47;;;8.73;53.75
46714;BME280;32445;51.376;10.874;2023-04-25T06:21:48;98661.59;;;8.75;53.57
46714;BME280;32445;51.376;10.874;2023-04-25T06:24:48;98669.31;;;8.76;54.45
46714;BME280;32445;51.376;10.874;2023-04-25T06:27:49;98669.38;;;8.75;54.22
46714;BME280;32445;51.376;10.874;2023-04-25T06:30:49;98662.53;;;8.72;54.08
46714;BME280;32445;51.376;10.874;2023-04-25T06:33:49;98673.59;;;8.77;53.98
46714;BME280;32445;51.376;10.874;2023-04-25T06:36:49;98671.69;;;8.82;54.22
46714;BME280;32445;51.376;10.874;2023-04-25T06:39:50;98679.28;;;8.89;54.00
46714;BME280;32445;51.376;10.874;2023-04-25T06:42:50;98670.91;;;8.80;54.88
46714;BME280;32445;51.376;10.874;2023-04-25T06:45:51;98677.84;;;8.80;55.17
46714;BME280;32445;51.376;10.874;2023-04-25T06:48:51;98685.59;;;8.80;54.98
46714;BME280;32445;51.376;10.874;2023-04-25T06:51:51;98693.41;;;8.78;55.34
46714;BME280;32445;51.376;10.874;2023-04-25T06:54:52;98686.53;;;8.77;54.64
46714;BME280;32445;51.376;10.874;2023-04-25T06:57:52;98691.63;;;8.80;54.59
46714;BME280;32445;51.376;10.874;2023-04-25T07:00:52;98679.34;;;8.87;54.86
46714;BME280;32445;51.376;10.874;2023-04-25T07:03:53;98686.19;;;8.88;54.70
46714;BME280;32445;51.376;10.874;2023-04-25T07:06:53;98679.97;;;8.94;55.21
46714;BME280;32445;51.376;10.874;2023-04-25T07:09:54;98682.22;;;9.05;55.57
46714;BME280;32445;51.376;10.874;2023-04-25T07:12:55;98683.63;;;9.13;55.30
46714;BME280;32445;51.376;10.874;2023-04-25T07:15:55;98688.41;;;9.26;54.25
46714;BME280;32445;51.376;10.874;2023-04-25T07:18:56;98688.19;;;9.32;53.37
46714;BME280;32445;51.376;10.874;2023-04-25T07:21:57;98700.25;;;9.33;53.81
46714;BME280;32445;51.376;10.874;2023-04-25T07:24:57;98697.50;;;9.38;53.03
46714;BME280;32445;51.376;10.874;2023-04-25T07:27:58;98699.94;;;9.42;53.60
46714;BME280;32445;51.376;10.874;2023-04-25T07:30:58;98701.41;;;9.49;53.11
46714;BME280;32445;51.376;10.874;2023-04-25T07:33:58;98709.66;;;9.61;52.94
46714;BME280;32445;51.376;10.874;2023-04-25T07:36:59;98712.09;;;9.65;52.86
46714;BME280;32445;51.376;10.874;2023-04-25T07:39:59;98718.75;;;9.73;52.19
46714;BME280;32445;51.376;10.874;2023-04-25T07:42:59;98724.63;;;9.78;51.50
46714;BME280;32445;51.376;10.874;2023-04-25T07:46:00;98730.38;;;9.86;51.95
46714;BME280;32445;51.376;10.874;2023-04-25T07:49:00;98731.28;;;9.85;51.50
46714;BME280;32445;51.376;10.874;2023-04-25T07:52:01;98748.66;;;9.83;51.20
46714;BME280;32445;51.376;10.874;2023-04-25T07:55:02;98740.88;;;9.83;51.07
46714;BME280;32445;51.376;10.874;2023-04-25T07:58:03;98744.06;;;9.90;50.94
46714;BME280;32445;51.376;10.874;2023-04-25T08:01:03;98743.06;;;9.94;50.88
46714;BME280;32445;51.376;10.874;2023-04-25T08:04:05;98750.91;;;9.92;50.83
46714;BME280;32445;51.376;10.874;2023-04-25T08:07:05;98756.78;;;9.97;50.59
46714;BME280;32445;51.376;10.874;2023-04-25T08:10:06;98759.25;;;10.00;50.62
46714;BME280;32445;51.376;10.874;2023-04-25T08:13:07;98766.88;;;10.05;50.24
46714;BME280;32445;51.376;10.874;2023-04-25T08:16:07;98770.81;;;10.15;50.52
46714;BME280;32445;51.376;10.874;2023-04-25T08:19:07;98770.59;;;10.21;50.15
46714;BME280;32445;51.376;10.874;2023-04-25T08:22:08;98774.59;;;10.30;49.48
46714;BME280;32445;51.376;10.874;2023-04-25T08:25:08;98787.63;;;10.29;48.80
46714;BME280;32445;51.376;10.874;2023-04-25T08:28:09;98779.94;;;10.26;48.80
46714;BME280;32445;51.376;10.874;2023-04-25T08:31:09;98784.28;;;10.25;49.01
46714;BME280;32445;51.376;10.874;2023-04-25T08:34:10;98782.38;;;10.30;49.04
46714;BME280;32445;51.376;10.874;2023-04-25T08:37:11;98790.69;;;10.40;49.26
46714;BME280;32445;51.376;10.874;2023-04-25T08:40:14;98795.03;;;10.39;48.53
46714;BME280;32445;51.376;10.874;2023-04-25T08:43:20;98799.28;;;10.42;48.94
46714;BME280;32445;51.376;10.874;2023-04-25T08:46:21;98804.28;;;10.47;48.53
46714;BME280;32445;51.376;10.874;2023-04-25T08:49:21;98803.28;;;10.51;48.20
46714;BME280;32445;51.376;10.874;2023-04-25T08:52:23;98806.44;;;10.59;47.96
46714;BME280;32445;51.376;10.874;2023-04-25T08:55:24;98813.94;;;10.67;47.75
46714;BME280;32445;51.376;10.874;2023-04-25T08:58:27;98818.16;;;10.69;47.73
46714;BME280;32445;51.376;10.874;2023-04-25T09:01:28;98817.28;;;10.70;47.71
46714;BME280;32445;51.376;10.874;2023-04-25T09:04:31;98825.06;;;10.70;47.83
46714;BME280;32445;51.376;10.874;2023-04-25T09:07:31;98818.88;;;10.73;47.17
46714;BME280;32445;51.376;10.874;2023-04-25T09:10:32;98829.06;;;10.79;48.07
46714;BME280;32445;51.376;10.874;2023-04-25T09:13:32;98829.66;;;10.86;47.65
46714;BME280;32445;51.376;10.874;2023-04-25T09:16:33;98832.38;;;10.83;47.26
46714;BME280;32445;51.376;10.874;2023-04-25T09:19:35;98841.84;;;10.84;46.55
46714;BME280;32445;51.376;10.874;2023-04-25T09:22:36;98850.38;;;10.87;46.45
46714;BME280;32445;51.376;10.874;2023-04-25T09:25:38;98848.63;;;10.88;45.82
46714;BME280;32445;51.376;10.874;2023-04-25T09:28:43;98859.00;;;10.88;45.75
46714;BME280;32445;51.376;10.874;2023-04-25T09:31:43;98852.81;;;10.92;45.15
46714;BME280;32445;51.376;10.874;2023-04-25T09:34:54;98865.59;;;10.97;45.74
46714;BME280;32445;51.376;10.874;2023-04-25T09:37:55;98871.69;;;10.96;44.59
46714;BME280;32445;51.376;10.874;2023-04-25T09:40:56;98867.44;;;10.95;44.72
46714;BME280;32445;51.376;10.874;2023-04-25T09:43:57;98871.34;;;11.05;44.21
46714;BME280;32445;51.376;10.874;2023-04-25T09:46:58;98870.44;;;11.06;43.79
46714;BME280;32445;51.376;10.874;2023-04-25T09:49:59;98870.34;;;11.09;44.12
46714;BME280;32445;51.376;10.874;2023-04-25T09:53:05;98870.22;;;11.12;44.06
46714;BME280;32445;51.376;10.874;2023-04-25T09:56:08;98883.84;;;11.17;42.94
46714;BME280;32445;51.376;10.874;2023-04-25T09:59:10;98875.28;;;11.15;43.08
46714;BME280;32445;51.376;10.874;2023-04-25T10:02:13;98882.06;;;11.19;43.54
46714;BME280;32445;51.376;10.874;2023-04-25T10:05:14;98879.34;;;11.22;44.11
46714;BME280;32445;51.376;10.874;2023-04-25T10:08:15;98889.38;;;11.32;43.51
46714;BME280;32445;51.376;10.874;2023-04-25T10:11:16;98876.28;;;11.35;42.73
46714;BME280;32445;51.376;10.874;2023-04-25T10:14:18;98868.47;;;11.35;42.55
46714;BME280;32445;51.376;10.874;2023-04-25T10:17:19;98873.31;;;11.44;43.65
46714;BME280;32445;51.376;10.874;2023-04-25T10:20:20;98868.53;;;11.55;42.91
46714;BME280;32445;51.376;10.874;2023-04-25T10:23:22;98865.53;;;11.65;42.46
46714;BME280;32445;51.376;10.874;2023-04-25T10:26:23;98865.16;;;11.74;43.27
46714;BME280;32445;51.376;10.874;2023-04-25T10:29:25;98879.22;;;11.90;42.75
46714;BME280;32445;51.376;10.874;2023-04-25T10:32:26;98858.84;;;12.02;41.71
46714;BME280;32445;51.376;10.874;2023-04-25T10:35:28;98862.28;;;12.23;42.44
46714;BME280;32445;51.376;10.874;2023-04-25T10:38:28;98875.25;;;12.43;40.15
46714;BME280;32445;51.376;10.874;2023-04-25T10:41:29;98898.06;;;12.38;38.21
46714;BME280;32445;51.376;10.874;2023-04-25T10:44:30;98898.97;;;12.17;37.30
46714;BME280;32445;51.376;10.874;2023-04-25T10:47:36;98903.38;;;11.94;38.04
46714;BME280;32445;51.376;10.874;2023-04-25T10:50:38;98913.47;;;11.80;37.97
46714;BME280;32445;51.376;10.874;2023-04-25T10:53:39;98913.66;;;11.75;37.96
46714;BME280;32445;51.376;10.874;2023-04-25T10:56:41;98917.25;;;11.72;37.29
46714;BME280;32445;51.376;10.874;2023-04-25T10:59:44;98908.69;;;11.69;37.17
46714;BME280;32445;51.376;10.874;2023-04-25T11:02:46;98907.13;;;11.65;37.22
46714;BME280;32445;51.376;10.874;2023-04-25T11:05:48;98914.88;;;11.66;37.31
46714;BME280;32445;51.376;10.874;2023-04-25T11:08:50;98915.00;;;11.63;36.49
46714;BME280;32445;51.376;10.874;2023-04-25T11:11:57;98916.69;;;11.64;37.14
46714;BME280;32445;51.376;10.874;2023-04-25T11:15:03;98919.91;;;11.71;37.15
46714;BME280;32445;51.376;10.874;2023-04-25T11:18:04;98912.81;;;11.74;37.85
46714;BME280;32445;51.376;10.874;2023-04-25T11:21:05;98915.13;;;11.82;36.96
46714;BME280;32445;51.376;10.874;2023-04-25T11:24:06;98919.16;;;11.89;37.30
46714;BME280;32445;51.376;10.874;2023-04-25T11:27:06;98916.44;;;11.92;37.21
46714;BME280;32445;51.376;10.874;2023-04-25T11:30:11;98919.31;;;11.85;37.16
46714;BME280;32445;51.376;10.874;2023-04-25T11:33:12;98929.84;;;11.82;37.27
46714;BME280;32445;51.376;10.874;2023-04-25T11:36:13;98926.22;;;11.86;37.80
46714;BME280;32445;51.376;10.874;2023-04-25T11:39:13;98928.63;;;11.90;38.23
46714;BME280;32445;51.376;10.874;2023-04-25T11:42:15;98936.38;;;11.93;37.63
46714;BME280;32445;51.376;10.874;2023-04-25T11:45:15;98928.75;;;11.87;36.82
46714;BME280;32445;51.376;10.874;2023-04-25T11:48:16;98938.53;;;11.82;37.09
46714;BME280;32445;51.376;10.874;2023-04-25T11:51:17;98929.09;;;11.80;36.84
46714;BME280;32445;51.376;10.874;2023-04-25T11:54:17;98933.25;;;11.84;37.07
46714;BME280;32445;51.376;10.874;2023-04-25T11:57:19;98939.81;;;11.94;36.48
46714;BME280;32445;51.376;10.874;2023-04-25T12:00:20;98941.56;;;11.93;36.12
46714;BME280;32445;51.376;10.874;2023-04-25T12:03:21;98939.53;;;12.00;36.54
46714;BME280;32445;51.376;10.874;2023-04-25T12:06:27;98946.50;;;12.00;35.52
46714;BME280;32445;51.376;10.874;2023-04-25T12:09:30;98937.53;;;12.07;35.32
46714;BME280;32445;51.376;10.874;2023-04-25T12:12:35;98952.41;;;12.03;35.17
46714;BME280;32445;51.376;10.874;2023-04-25T12:15:35;98944.75;;;12.00;34.67
46714;BME280;32445;51.376;10.874;2023-04-25T12:18:35;98969.19;;;11.96;35.70
46714;BME280;32445;51.376;10.874;2023-04-25T12:21:36;98963.44;;;11.88;35.92
46714;BME280;32445;51.376;10.874;2023-04-25T12:24:36;98981.16;;;11.78;35.84
46714;BME280;32445;51.376;10.874;2023-04-25T12:27:36;98972.72;;;11.71;36.45
46714;BME280;32445;51.376;10.874;2023-04-25T12:31:06;98971.16;;;11.67;36.49
46714;BME280;32445;51.376;10.874;2023-04-25T12:34:06;98980.53;;;11.71;36.95
46714;BME280;32445;51.376;10.874;2023-04-25T12:37:07;98977.88;;;11.73;36.98
46714;BME280;32445;51.376;10.874;2023-04-25T12:40:07;98982.47;;;11.66;36.84
46714;BME280;32445;51.376;10.874;2023-04-25T12:43:08;98981.88;;;11.59;36.85
46714;BME280;32445;51.376;10.874;2023-04-25T12:46:09;98992.38;;;11.56;36.51
46714;BME280;32445;51.376;10.874;2023-04-25T12:49:09;98991.53;;;11.56;37.31
46714;BME280;32445;51.376;10.874;2023-04-25T12:52:09;98993.22;;;11.57;37.29
46714;BME280;32445;51.376;10.874;2023-04-25T12:55:10;98992.75;;;11.69;37.24
46714;BME280;32445;51.376;10.874;2023-04-25T12:58:10;98986.47;;;11.75;37.54
46714;BME280;32445;51.376;10.874;2023-04-25T13:01:11;98999.28;;;11.80;36.63
46714;BME280;32445;51.376;10.874;2023-04-25T13:04:12;98999.47;;;11.75;37.01
46714;BME280;32445;51.376;10.874;2023-04-25T13:07:12;99009.06;;;11.73;36.44
46714;BME280;32445;51.376;10.874;2023-04-25T13:10:13;99012.19;;;11.59;36.33
46714;BME280;32445;51.376;10.874;2023-04-25T13:13:13;99009.06;;;11.51;36.50
46714;BME280;32445;51.376;10.874;2023-04-25T13:16:14;99005.00;;;11.43;36.50
46714;BME280;32445;51.376;10.874;2023-04-25T13:19:14;99008.25;;;11.49;36.81
46714;BME280;32445;51.376;10.874;2023-04-25T13:22:14;99006.34;;;11.54;37.18
46714;BME280;32445;51.376;10.874;2023-04-25T13:25:16;99012.25;;;11.57;37.58
46714;BME280;32445;51.376;10.874;2023-04-25T13:28:17;99014.69;;;11.62;37.43
46714;BME280;32445;51.376;10.874;2023-04-25T13:31:17;99015.59;;;11.61;37.42
46714;BME280;32445;51.376;10.874;2023-04-25T13:34:17;99020.00;;;11.59;37.20
46714;BME280;32445;51.376;10.874;2023-04-25T13:37:17;99014.19;;;11.52;37.17
46714;BME280;32445;51.376;10.874;2023-04-25T13:40:18;99015.22;;;11.48;36.93
46714;BME280;32445;51.376;10.874;2023-04-25T13:43:19;99017.94;;;11.45;37.16
46714;BME280;32445;51.376;10.874;2023-04-25T13:46:20;99022.38;;;11.41;37.85
46714;BME280;32445;51.376;10.874;2023-04-25T13:49:21;99021.19;;;11.50;37.41
46714;BME280;32445;51.376;10.874;2023-04-25T13:52:23;99012.44;;;11.53;37.44
46714;BME280;32445;51.376;10.874;2023-04-25T13:55:27;99021.09;;;11.53;36.99
46714;BME280;32445;51.376;10.874;2023-04-25T13:58:27;99027.06;;;11.55;37.50
46714;BME280;32445;51.376;10.874;2023-04-25T14:01:28;99017.31;;;11.62;36.90
46714;BME280;32445;51.376;10.874;2023-04-25T14:04:30;99025.94;;;11.63;36.71
46714;BME280;32445;51.376;10.874;2023-04-25T14:07:31;99020.69;;;11.64;37.15
46714;BME280;32445;51.376;10.874;2023-04-25T14:10:31;99022.75;;;11.78;37.56
46714;BME280;32445;51.376;10.874;2023-04-25T14:13:31;99017.13;;;11.89;36.44
46714;BME280;32445;51.376;10.874;2023-04-25T14:16:34;99017.56;;;12.00;36.53
46714;BME280;32445;51.376;10.874;2023-04-25T14:19:34;99024.63;;;12.19;35.81
46714;BME280;32445;51.376;10.874;2023-04-25T14:22:34;99024.56;;;12.20;35.49
46714;BME280;32445;51.376;10.874;2023-04-25T14:25:35;99023.63;;;12.23;35.06
46714;BME280;32445;51.376;10.874;2023-04-25T14:28:36;99019.31;;;12.22;34.88
46714;BME280;32445;51.376;10.874;2023-04-25T14:31:37;99029.06;;;12.17;34.96
46714;BME280;32445;51.376;10.874;2023-04-25T14:34:37;99041.47;;;12.10;34.71
46714;BME280;32445;51.376;10.874;2023-04-25T14:37:37;99036.53;;;12.04;35.01
46714;BME280;32445;51.376;10.874;2023-04-25T14:40:38;99040.41;;;11.93;35.75
46714;BME280;32445;51.376;10.874;2023-04-25T14:43:39;99038.03;;;11.86;35.54
46714;BME280;32445;51.376;10.874;2023-04-25T14:46:42;99034.06;;;11.77;35.81
46714;BME280;32445;51.376;10.874;2023-04-25T14:49:43;99043.50;;;11.80;36.39
46714;BME280;32445;51.376;10.874;2023-04-25T14:52:44;99049.59;;;11.78;36.04
46714;BME280;32445;51.376;10.874;2023-04-25T14:55:45;99051.56;;;11.72;35.45
46714;BME280;32445;51.376;10.874;2023-04-25T14:58:45;99038.88;;;11.64;36.73
46714;BME280;32445;51.376;10.874;2023-04-25T15:01:46;99049.22;;;11.66;36.05
46714;BME280;32445;51.376;10.874;2023-04-25T15:04:46;99051.75;;;11.67;36.89
46714;BME280;32445;51.376;10.874;2023-04-25T15:07:46;99051.47;;;11.75;36.60
46714;BME280;32445;51.376;10.874;2023-04-25T15:10:47;99054.09;;;11.75;36.25
46714;BME280;32445;51.376;10.874;2023-04-25T15:13:48;99052.25;;;11.77;36.85
46714;BME280;32445;51.376;10.874;2023-04-25T15:16:48;99053.97;;;11.78;36.63
46714;BME280;32445;51.376;10.874;2023-04-25T15:19:49;99053.34;;;11.71;36.08
46714;BME280;32445;51.376;10.874;2023-04-25T15:22:49;99060.25;;;11.72;37.35
46714;BME280;32445;51.376;10.874;2023-04-25T15:25:50;99054.09;;;11.75;37.22
46714;BME280;32445;51.376;10.874;2023-04-25T15:28:51;99059.31;;;11.97;37.30
46714;BME280;32445;51.376;10.874;2023-04-25T15:31:52;99051.81;;;12.11;36.79
46714;BME280;32445;51.376;10.874;2023-04-25T15:34:53;99051.28;;;12.25;37.03
46714;BME280;32445;51.376;10.874;2023-04-25T15:37:53;99044.38;;;12.45;37.47
46714;BME280;32445;51.376;10.874;2023-04-25T15:40:53;99055.22;;;12.56;35.97
46714;BME280;32445;51.376;10.874;2023-04-25T15:43:54;99052.25;;;12.66;35.82
46714;BME280;32445;51.376;10.874;2023-04-25T15:46:54;99054.63;;;12.70;34.91
46714;BME280;32445;51.376;10.874;2023-04-25T15:49:55;99058.53;;;12.60;34.77
46714;BME280;32445;51.376;10.874;2023-04-25T15:52:55;99056.38;;;12.49;34.74